createdAt,value
2023-04-02T00:00:12.697Z,99128.69
2023-04-02T00:03:09.986Z,99117.25
2023-04-02T00:05:57.838Z,99110.44
2023-04-02T00:08:45.593Z,99095.59
2023-04-02T00:11:38.730Z,99124.59
2023-04-02T00:14:32.173Z,99111.03
2023-04-02T00:17:22.839Z,99106.63
2023-04-02T00:20:19.059Z,99101.97
2023-04-02T00:23:07.416Z,99115.78
2023-04-02T00:25:55.204Z,99109.00
2023-04-02T00:28:42.859Z,99117.97
2023-04-02T00:31:31.970Z,99095.78
2023-04-02T00:34:30.954Z,99135.44
2023-04-02T00:37:27.806Z,99128.09
2023-04-02T00:40:30.914Z,99136.97
2023-04-02T00:43:21.169Z,99126.81
2023-04-02T00:46:14.966Z,99139.41
2023-04-02T00:49:10.850Z,99113.88
2023-04-02T00:52:03.615Z,99129.06
2023-04-02T00:55:01.292Z,99135.44
2023-04-02T00:57:50.621Z,99116.00
2023-04-02T01:00:38.388Z,99127.09
2023-04-02T01:03:37.023Z,99125.94
2023-04-02T01:06:31.287Z,99116.88
2023-04-02T01:09:36.659Z,99128.34
2023-04-02T01:12:42.518Z,99088.50
2023-04-02T01:15:38.731Z,99084.53
2023-04-02T01:18:46.690Z,99120.38
2023-04-02T01:21:46.233Z,99118.03
2023-04-02T01:24:37.486Z,99098.03
2023-04-02T01:27:35.225Z,99124.50
2023-04-02T01:30:29.489Z,99152.25
2023-04-02T01:33:18.457Z,99165.44
2023-04-02T01:36:11.870Z,99128.91
2023-04-02T01:39:02.998Z,99150.41
2023-04-02T01:41:58.202Z,99163.84
2023-04-02T01:44:52.381Z,99117.97
2023-04-02T01:47:40.914Z,99155.34
2023-04-02T01:50:33.822Z,99155.28
2023-04-02T01:53:24.779Z,99153.84
2023-04-02T01:56:12.622Z,99150.28
2023-04-02T01:59:02.912Z,99131.22
2023-04-02T02:02:01.731Z,99104.47
2023-04-02T02:04:50.737Z,99154.84
2023-04-02T02:07:38.544Z,99149.41
2023-04-02T02:10:39.367Z,99145.50
2023-04-02T02:13:27.591Z,99148.63
2023-04-02T02:16:18.328Z,99154.22
2023-04-02T02:19:06.282Z,99119.66
2023-04-02T02:21:57.314Z,99137.13
2023-04-02T02:24:45.652Z,99157.00
2023-04-02T02:27:45.601Z,99167.31
2023-04-02T02:30:46.267Z,99139.66
2023-04-02T02:33:41.955Z,99154.31
2023-04-02T02:37:04.779Z,99168.59
2023-04-02T02:39:57.682Z,99162.53
2023-04-02T02:42:54.126Z,99170.94
2023-04-02T02:45:43.937Z,99161.03
2023-04-02T02:48:38.635Z,99159.94
2023-04-02T02:51:40.674Z,99162.25
2023-04-02T02:54:32.777Z,99124.19
2023-04-02T02:57:28.947Z,99159.03
2023-04-02T03:00:19.733Z,99159.03
2023-04-02T03:03:13.118Z,99124.47
2023-04-02T03:06:08.658Z,99160.13
2023-04-02T03:09:33.591Z,99156.13
2023-04-02T03:12:24.223Z,99166.38
2023-04-02T03:16:03.418Z,99166.47
2023-04-02T03:19:08.499Z,99165.28
2023-04-02T03:22:06.086Z,99164.41
2023-04-02T03:25:06.368Z,99162.81
2023-04-02T03:28:02.735Z,99150.09
2023-04-02T03:31:03.873Z,99164.50
2023-04-02T03:34:02.438Z,99164.28
2023-04-02T03:37:11.358Z,99170.44
2023-04-02T03:40:16.010Z,99139.13
2023-04-02T03:43:26.819Z,99170.34
2023-04-02T03:46:28.632Z,99181.94
2023-04-02T03:49:31.598Z,99174.06
2023-04-02T03:52:29.897Z,99165.16
2023-04-02T03:55:29.139Z,99184.53
2023-04-02T03:58:29.184Z,99185.19
2023-04-02T04:01:27.634Z,99181.41
2023-04-02T04:04:19.755Z,99166.66
2023-04-02T04:07:19.352Z,99192.34
2023-04-02T04:10:08.997Z,99172.16
2023-04-02T04:13:04.273Z,99199.31
2023-04-02T04:16:03.058Z,99197.06
2023-04-02T04:19:03.822Z,99192.50
2023-04-02T04:21:57.278Z,99166.63
2023-04-02T04:24:48.539Z,99200.09
2023-04-02T04:27:58.568Z,99192.53
2023-04-02T04:31:10.817Z,99198.81
2023-04-02T04:34:04.237Z,99217.94
2023-04-02T04:37:02.370Z,99203.19
2023-04-02T04:40:12.118Z,99208.28
2023-04-02T04:43:06.294Z,99215.94
2023-04-02T04:46:12.874Z,99216.91
2023-04-02T04:49:12.689Z,99227.38
2023-04-02T04:52:34.965Z,99231.94
2023-04-02T04:55:56.983Z,99217.31
2023-04-02T04:58:59.375Z,99208.19
2023-04-02T05:02:16.432Z,99227.41
2023-04-02T05:05:18.256Z,99213.47
2023-04-02T05:08:28.248Z,99222.91
2023-04-02T05:11:37.394Z,99219.88
2023-04-02T05:14:52.440Z,99222.41
2023-04-02T05:18:28.092Z,99242.84
2023-04-02T05:21:40.894Z,99248.13
2023-04-02T05:24:48.288Z,99245.31
2023-04-02T05:27:55.320Z,99214.00
2023-04-02T05:31:03.687Z,99257.63
2023-04-02T05:33:54.848Z,99253.91
2023-04-02T05:36:47.026Z,99228.63
2023-04-02T05:39:35.558Z,99260.31
2023-04-02T05:42:27.532Z,99257.59
2023-04-02T05:45:41.462Z,99256.38
2023-04-02T05:48:39.453Z,99249.22
2023-04-02T05:51:58.375Z,99256.13
2023-04-02T05:55:12.542Z,99257.72
2023-04-02T05:58:34.703Z,99267.72
2023-04-02T06:01:45.899Z,99272.69
2023-04-02T06:05:03.334Z,99253.25
2023-04-02T06:08:38.826Z,99285.63
2023-04-02T06:11:33.440Z,99284.50
2023-04-02T06:14:22.810Z,99284.47
2023-04-02T06:17:19.405Z,99255.69
2023-04-02T06:20:10.108Z,99284.13
2023-04-02T06:23:09.998Z,99288.56
2023-04-02T06:26:33.619Z,99200.69
2023-04-02T06:29:29.092Z,99289.19
2023-04-02T06:32:17.458Z,99280.09
2023-04-02T06:35:06.305Z,99267.09
2023-04-02T06:38:02.325Z,99287.91
2023-04-02T06:41:00.221Z,99283.50
2023-04-02T06:44:15.158Z,99293.72
2023-04-02T06:47:29.181Z,99295.25
2023-04-02T06:50:28.103Z,99283.16
2023-04-02T06:53:33.245Z,99275.72
2023-04-02T06:56:43.987Z,99293.34
2023-04-02T06:59:35.534Z,99295.13
2023-04-02T07:02:38.312Z,99301.97
2023-04-02T07:05:28.322Z,99282.69
2023-04-02T07:08:19.605Z,99297.75
2023-04-02T07:11:07.430Z,99294.75
2023-04-02T07:13:55.159Z,99316.63
2023-04-02T07:16:44.444Z,99278.88
2023-04-02T07:19:32.604Z,99323.41
2023-04-02T07:22:21.070Z,99308.16
2023-04-02T07:25:13.902Z,99295.22
2023-04-02T07:28:01.879Z,99313.63
2023-04-02T07:30:51.122Z,99334.03
2023-04-02T07:33:39.762Z,99319.91
2023-04-02T07:36:30.955Z,99325.28
2023-04-02T07:39:18.604Z,99322.91
2023-04-02T07:42:06.656Z,99339.53
2023-04-02T07:44:54.354Z,99328.94
2023-04-02T07:47:42.754Z,99305.97
2023-04-02T07:50:30.911Z,99348.84
2023-04-02T07:53:40.630Z,99336.59
2023-04-02T07:56:28.934Z,99335.63
2023-04-02T07:59:16.649Z,99342.66
2023-04-02T08:02:04.705Z,99289.66
2023-04-02T08:04:52.433Z,99334.78
2023-04-02T08:07:40.113Z,99331.63
2023-04-02T08:10:27.756Z,99339.41
2023-04-02T08:13:17.610Z,99342.41
2023-04-02T08:16:07.145Z,99335.03
2023-04-02T08:18:54.830Z,99325.06
2023-04-02T08:21:43.123Z,99354.59
2023-04-02T08:24:33.893Z,99333.56
2023-04-02T08:27:22.128Z,99353.72
2023-04-02T08:30:18.284Z,99350.09
2023-04-02T08:33:06.804Z,99345.16
2023-04-02T08:35:54.567Z,99340.63
2023-04-02T08:38:45.782Z,99318.41
2023-04-02T08:41:47.628Z,99351.50
2023-04-02T08:44:38.264Z,99355.72
2023-04-02T08:47:30.198Z,99326.66
2023-04-02T08:50:33.444Z,99355.38
2023-04-02T08:53:31.507Z,99355.72
2023-04-02T08:56:39.623Z,99354.47
2023-04-02T08:59:38.649Z,99347.25
2023-04-02T09:02:38.077Z,99354.41
2023-04-02T09:05:34.951Z,99357.44
2023-04-02T09:08:25.837Z,99354.34
2023-04-02T09:11:36.218Z,99358.16
2023-04-02T09:14:39.498Z,99364.66
2023-04-02T09:17:28.062Z,99367.50
2023-04-02T09:20:19.560Z,99351.09
2023-04-02T09:23:17.124Z,99365.97
2023-04-02T09:26:25.237Z,99363.50
2023-04-02T09:29:14.635Z,99356.34
2023-04-02T09:32:11.335Z,99326.22
2023-04-02T09:35:24.830Z,99351.88
2023-04-02T09:38:33.254Z,99355.38
2023-04-02T09:41:21.426Z,99342.47
2023-04-02T09:44:27.351Z,99344.78
2023-04-02T09:47:26.781Z,99325.00
2023-04-02T09:50:31.168Z,99345.91
2023-04-02T09:53:46.348Z,99342.91
2023-04-02T09:56:35.786Z,99345.22
2023-04-02T09:59:23.576Z,99339.38
2023-04-02T10:02:32.412Z,99354.81
2023-04-02T10:05:36.860Z,99329.03
2023-04-02T10:08:28.377Z,99333.69
2023-04-02T10:11:36.403Z,99357.94
2023-04-02T10:14:40.981Z,99346.75
2023-04-02T10:17:33.053Z,99339.19
2023-04-02T10:20:26.022Z,99351.19
2023-04-02T10:23:18.092Z,99352.22
2023-04-02T10:26:17.738Z,99355.75
2023-04-02T10:29:26.326Z,99360.44
2023-04-02T10:32:23.511Z,99363.13
2023-04-02T10:35:14.395Z,99358.47
2023-04-02T10:38:26.991Z,99365.00
2023-04-02T10:41:22.473Z,99371.13
2023-04-02T10:44:37.516Z,99363.44
2023-04-02T10:47:38.504Z,99361.72
2023-04-02T10:50:29.805Z,99367.56
2023-04-02T10:53:21.577Z,99336.72
2023-04-02T10:56:12.638Z,99354.13
2023-04-02T10:59:23.616Z,99352.59
2023-04-02T11:02:39.507Z,99326.59
2023-04-02T11:05:41.086Z,99351.84
2023-04-02T11:08:47.771Z,99350.22
2023-04-02T11:11:40.518Z,99337.94
2023-04-02T11:14:32.813Z,99346.84
2023-04-02T11:17:21.285Z,99343.66
2023-04-02T11:20:44.470Z,99346.00
2023-04-02T11:23:57.518Z,99349.06
2023-04-02T11:26:47.637Z,99278.41
2023-04-02T11:29:47.226Z,99316.63
2023-04-02T11:32:43.742Z,99332.38
2023-04-02T11:35:31.576Z,99343.81
2023-04-02T11:38:24.441Z,99337.66
2023-04-02T11:41:12.243Z,99335.44
2023-04-02T11:44:02.808Z,99313.25
2023-04-02T11:46:51.861Z,99334.19
2023-04-02T11:49:56.820Z,99330.38
2023-04-02T11:52:47.672Z,99341.72
2023-04-02T11:55:36.796Z,99312.09
2023-04-02T11:58:54.429Z,99307.91
2023-04-02T12:02:13.970Z,99314.84
2023-04-02T12:05:07.998Z,99310.41
2023-04-02T12:08:12.803Z,99334.81
2023-04-02T12:11:02.639Z,99307.31
2023-04-02T12:13:53.300Z,99303.41
2023-04-02T12:16:44.428Z,99319.50
2023-04-02T12:19:32.408Z,99325.00
2023-04-02T12:22:29.313Z,99282.19
2023-04-02T12:25:40.326Z,99327.72
2023-04-02T12:28:30.335Z,99327.56
2023-04-02T12:31:25.412Z,99322.09
2023-04-02T12:34:18.497Z,99312.13
2023-04-02T12:37:21.287Z,99293.31
2023-04-02T12:40:18.942Z,99309.22
2023-04-02T12:43:34.941Z,99296.28
2023-04-02T12:46:24.646Z,99315.78
2023-04-02T12:49:35.978Z,99307.88
2023-04-02T12:52:28.865Z,99301.53
2023-04-02T12:55:27.529Z,99311.25
2023-04-02T12:58:56.917Z,99317.09
2023-04-02T13:01:58.340Z,99322.31
2023-04-02T13:05:12.622Z,99310.94
2023-04-02T13:08:00.725Z,99292.06
2023-04-02T13:10:55.985Z,99323.94
2023-04-02T13:13:46.180Z,99311.88
2023-04-02T13:16:37.869Z,99291.78
2023-04-02T13:19:32.797Z,99299.84
2023-04-02T13:22:32.558Z,99302.94
2023-04-02T13:25:28.273Z,99307.56
2023-04-02T13:28:16.098Z,99256.47
2023-04-02T13:31:04.004Z,99300.72
2023-04-02T13:33:52.331Z,99306.56
2023-04-02T13:36:40.051Z,99291.06
2023-04-02T13:39:27.930Z,99305.41
2023-04-02T13:42:18.171Z,99302.31
2023-04-02T13:45:22.798Z,99300.31
2023-04-02T13:48:14.999Z,99300.31
2023-04-02T13:51:02.684Z,99301.78
2023-04-02T13:53:57.295Z,99294.59
2023-04-02T13:56:45.294Z,99288.22
2023-04-02T13:59:33.094Z,99291.69
2023-04-02T14:02:24.997Z,99300.19
2023-04-02T14:05:38.481Z,99282.84
2023-04-02T14:09:08.084Z,99290.09
2023-04-02T14:12:08.790Z,99278.34
2023-04-02T14:15:15.186Z,99290.84
2023-04-02T14:18:24.473Z,99293.94
2023-04-02T14:21:42.421Z,99285.88
2023-04-02T14:24:51.674Z,99287.97
2023-04-02T14:28:10.737Z,99298.50
2023-04-02T14:31:11.599Z,99292.53
2023-04-02T14:34:20.822Z,99288.06
2023-04-02T14:37:37.368Z,99294.66
2023-04-02T14:40:46.716Z,99293.94
2023-04-02T14:44:03.525Z,99253.44
2023-04-02T14:47:02.305Z,99286.84
2023-04-02T14:49:59.050Z,99291.13
2023-04-02T14:52:52.752Z,99267.09
2023-04-02T14:55:47.051Z,99259.50
2023-04-02T14:58:41.695Z,99281.03
2023-04-02T15:01:37.000Z,99290.97
2023-04-02T15:04:51.450Z,99291.38
2023-04-02T15:07:45.627Z,99296.47
2023-04-02T15:10:41.926Z,99271.50
2023-04-02T15:13:46.201Z,99300.25
2023-04-02T15:16:36.715Z,99261.78
2023-04-02T15:19:24.540Z,99307.13
2023-04-02T15:22:45.457Z,99289.66
2023-04-02T15:25:45.768Z,99279.50
2023-04-02T15:28:46.489Z,99272.75
2023-04-02T15:31:35.716Z,99303.63
2023-04-02T15:34:54.958Z,99277.84
2023-04-02T15:37:57.937Z,99262.53
2023-04-02T15:41:16.314Z,99318.13
2023-04-02T15:44:03.790Z,99317.78
2023-04-02T15:47:19.469Z,99325.78
2023-04-02T15:50:28.143Z,99321.97
2023-04-02T15:53:34.812Z,99299.22
2023-04-02T15:56:51.244Z,99333.09
2023-04-02T15:59:51.259Z,99342.34
2023-04-02T16:03:06.867Z,99336.31
2023-04-02T16:06:17.546Z,99334.56
2023-04-02T16:09:08.622Z,99326.56
2023-04-02T16:12:02.536Z,99333.88
2023-04-02T16:14:50.642Z,99336.50
2023-04-02T16:17:45.992Z,99341.78
2023-04-02T16:20:42.785Z,99351.81
2023-04-02T16:23:41.097Z,99349.56
2023-04-02T16:26:50.890Z,99348.06
2023-04-02T16:30:08.677Z,99328.38
2023-04-02T16:33:24.067Z,99356.91
2023-04-02T16:36:21.678Z,99357.81
2023-04-02T16:39:17.327Z,99360.31
2023-04-02T16:42:44.841Z,99366.72
2023-04-02T16:45:50.574Z,99373.53
2023-04-02T16:49:13.918Z,99385.22
2023-04-02T16:52:16.114Z,99390.13
2023-04-02T16:55:07.175Z,99391.78
2023-04-02T16:58:31.649Z,99395.00
2023-04-02T17:01:48.770Z,99402.19
2023-04-02T17:05:04.506Z,99398.25
2023-04-02T17:08:12.305Z,99404.22
2023-04-02T17:11:08.523Z,99397.91
2023-04-02T17:14:06.535Z,99410.22
2023-04-02T17:17:02.788Z,99415.00
2023-04-02T17:19:58.316Z,99416.59
2023-04-02T17:22:47.729Z,99426.47
2023-04-02T17:25:39.274Z,99423.69
2023-04-02T17:28:37.227Z,99424.44
2023-04-02T17:31:28.832Z,99441.06
2023-04-02T17:34:19.156Z,99438.66
2023-04-02T17:37:40.663Z,99452.09
2023-04-02T17:40:59.371Z,99458.41
2023-04-02T17:44:10.966Z,99462.78
2023-04-02T17:47:27.805Z,99463.50
2023-04-02T17:50:52.508Z,99472.56
2023-04-02T17:53:51.294Z,99464.13
2023-04-02T17:56:44.931Z,99454.13
2023-04-02T17:59:58.430Z,99462.03
2023-04-02T18:03:13.462Z,99488.56
2023-04-02T18:06:08.938Z,99463.34
2023-04-02T18:09:03.329Z,99506.03
2023-04-02T18:12:01.164Z,99507.53
2023-04-02T18:15:20.219Z,99513.94
2023-04-02T18:18:20.060Z,99513.31
2023-04-02T18:21:07.762Z,99512.16
2023-04-02T18:24:01.673Z,99493.25
2023-04-02T18:27:07.553Z,99532.38
2023-04-02T18:30:19.564Z,99530.41
2023-04-02T18:33:36.353Z,99527.81
2023-04-02T18:36:41.149Z,99539.75
2023-04-02T18:40:00.185Z,99550.34
2023-04-02T18:43:03.715Z,99555.88
2023-04-02T18:46:05.471Z,99527.53
2023-04-02T18:49:06.456Z,99549.44
2023-04-02T18:52:03.842Z,99472.63
2023-04-02T18:54:55.566Z,99562.19
2023-04-02T18:57:45.632Z,99575.38
2023-04-02T19:00:38.355Z,99570.31
2023-04-02T19:03:55.231Z,99575.41
2023-04-02T19:06:47.792Z,99578.38
2023-04-02T19:09:39.304Z,99566.38
2023-04-02T19:12:28.498Z,99578.75
2023-04-02T19:15:20.574Z,99579.00
2023-04-02T19:18:16.781Z,99580.81
2023-04-02T19:21:26.311Z,99574.22
2023-04-02T19:24:43.943Z,99591.47
2023-04-02T19:27:44.865Z,99575.09
2023-04-02T19:30:32.822Z,99588.34
2023-04-02T19:33:42.618Z,99584.69
2023-04-02T19:36:39.285Z,99578.22
2023-04-02T19:39:38.876Z,99590.69
2023-04-02T19:42:41.680Z,99557.44
2023-04-02T19:45:39.795Z,99594.00
2023-04-02T19:48:39.265Z,99592.91
2023-04-02T19:51:27.424Z,99599.38
2023-04-02T19:54:15.789Z,99590.94
2023-04-02T19:57:05.267Z,99591.66
2023-04-02T19:59:54.878Z,99609.00
2023-04-02T20:02:42.739Z,99591.00
2023-04-02T20:05:30.710Z,99616.03
2023-04-02T20:08:18.611Z,99565.97
2023-04-02T20:11:07.058Z,99603.69
2023-04-02T20:13:55.211Z,99609.19
2023-04-02T20:16:44.633Z,99618.81
2023-04-02T20:19:33.554Z,99594.28
2023-04-02T20:22:21.169Z,99626.88
2023-04-02T20:25:09.027Z,99621.66
2023-04-02T20:27:57.017Z,99622.03
2023-04-02T20:30:44.738Z,99615.81
2023-04-02T20:33:32.826Z,99625.47
2023-04-02T20:36:20.541Z,99561.63
2023-04-02T20:39:09.358Z,99620.25
2023-04-02T20:42:01.324Z,99611.97
2023-04-02T20:44:49.098Z,99620.59
2023-04-02T20:47:36.859Z,99615.47
2023-04-02T20:50:24.726Z,99584.22
2023-04-02T20:53:12.412Z,99618.28
2023-04-02T20:56:08.515Z,99587.38
2023-04-02T20:58:56.503Z,99610.59
2023-04-02T21:01:44.337Z,99593.59
2023-04-02T21:04:32.194Z,99604.16
2023-04-02T21:07:19.995Z,99614.75
2023-04-02T21:10:07.831Z,99618.63
2023-04-02T21:12:55.542Z,99619.63
2023-04-02T21:15:43.607Z,99606.41
2023-04-02T21:18:32.535Z,99601.59
2023-04-02T21:21:21.418Z,99616.34
2023-04-02T21:24:09.653Z,99608.25
2023-04-02T21:26:57.431Z,99611.19
2023-04-02T21:29:45.155Z,99570.94
2023-04-02T21:32:33.488Z,99611.50
2023-04-02T21:35:22.139Z,99611.41
2023-04-02T21:38:09.782Z,99624.97
2023-04-02T21:40:57.495Z,99576.78
2023-04-02T21:43:48.822Z,99607.97
2023-04-02T21:46:42.596Z,99587.78
2023-04-02T21:49:30.795Z,99606.53
2023-04-02T21:52:18.531Z,99611.75
2023-04-02T21:55:06.538Z,99615.13
2023-04-02T21:57:54.213Z,99606.69
2023-04-02T22:00:41.966Z,99634.03
2023-04-02T22:03:31.882Z,99632.13
2023-04-02T22:06:21.640Z,99589.13
2023-04-02T22:09:12.753Z,99589.91
2023-04-02T22:12:00.528Z,99622.88
2023-04-02T22:14:48.277Z,99591.69
2023-04-02T22:17:36.050Z,99630.94
2023-04-02T22:20:23.781Z,99581.63
2023-04-02T22:23:11.475Z,99628.56
2023-04-02T22:26:00.131Z,99629.88
2023-04-02T22:28:47.991Z,99624.66
2023-04-02T22:31:35.955Z,99602.47
2023-04-02T22:34:23.800Z,99637.94
2023-04-02T22:37:12.158Z,99631.78
2023-04-02T22:40:00.671Z,99642.91
2023-04-02T22:42:49.031Z,99628.06
2023-04-02T22:45:36.714Z,99604.94
2023-04-02T22:48:24.397Z,99610.16
2023-04-02T22:51:13.901Z,99645.56
2023-04-02T22:54:01.509Z,99637.94
2023-04-02T22:56:51.426Z,99645.00
2023-04-02T22:59:43.756Z,99644.81
2023-04-02T23:02:31.665Z,99645.59
2023-04-02T23:05:19.441Z,99642.56
2023-04-02T23:08:07.284Z,99622.22
2023-04-02T23:11:22.846Z,99639.38
2023-04-02T23:14:10.770Z,99643.03
2023-04-02T23:16:58.483Z,99637.59
2023-04-02T23:19:51.423Z,99636.53
2023-04-02T23:22:39.446Z,99632.41
2023-04-02T23:25:27.117Z,99615.56
2023-04-02T23:28:14.869Z,99626.63
2023-04-02T23:31:04.207Z,99634.53
2023-04-02T23:33:52.666Z,99637.78
2023-04-02T23:36:41.194Z,99610.88
2023-04-02T23:39:28.925Z,99620.81
2023-04-02T23:42:16.612Z,99617.97
2023-04-02T23:45:04.716Z,99620.72
2023-04-02T23:47:52.466Z,99583.19
2023-04-02T23:50:40.136Z,99612.41
2023-04-02T23:53:27.763Z,99616.09
2023-04-02T23:56:15.870Z,99580.72
2023-04-02T23:59:04.093Z,99612.03
